Time;durP1;ratioP1;P1;durP2;ratioP2;P2;SDS_P1;SDS_P2;PMS_P1;PMS_P2;Temp;Humidity;BMP_temperature;BMP_pressure;BME280_temperature;BME280_humidity;BME280_pressure;Samples;Min_cycle;Max_cycle;Signal;HPM_P1;HPM_P2
2021/11/28 00:01:43;;;;;;;137.73;70.00;;;-1.00;99.90;;;;;;5055234;28;20040;-89
2021/11/28 00:04:10;;;;;;;33.58;14.18;;;-1.10;99.90;;;;;;5075822;28;20107;-88
2021/11/28 00:06:39;;;;;;;44.55;18.65;;;-1.10;99.90;;;;;;5076960;28;20427;-88
2021/11/28 00:11:46;;;;;;;40.92;18.80;;;-1.10;99.90;;;;;;5078292;28;20507;-88
2021/11/28 00:14:15;;;;;;;23.52;12.93;;;-1.30;99.90;;;;;;5059250;28;20420;-88
2021/11/28 00:16:43;;;;;;;48.58;21.80;;;-1.40;99.90;;;;;;5058760;28;20041;-89
2021/11/28 00:19:10;;;;;;;41.25;17.67;;;-1.20;99.90;;;;;;5058585;28;20060;-89
2021/11/28 00:21:37;;;;;;;57.45;29.98;;;-1.30;99.90;;;;;;5059033;28;20554;-88
2021/11/28 00:24:04;;;;;;;23.98;13.45;;;-1.30;99.90;;;;;;5076077;28;20087;-88
2021/11/28 00:26:32;;;;;;;33.83;15.32;;;-1.30;99.90;;;;;;5076084;28;20087;-89
2021/11/28 00:29:00;;;;;;;25.65;11.77;;;-1.40;99.90;;;;;;5075840;28;20055;-88
2021/11/28 00:31:27;;;;;;;24.58;11.77;;;-1.60;99.90;;;;;;5076265;28;20041;-89
2021/11/28 00:33:54;;;;;;;21.88;11.18;;;-1.70;99.90;;;;;;5058632;28;20140;-89
2021/11/28 00:36:21;;;;;;;24.38;12.02;;;-1.70;99.90;;;;;;5058672;28;20102;-89
2021/11/28 00:38:47;;;;;;;17.73;10.05;;;-1.90;99.90;;;;;;5058408;28;20051;-89
2021/11/28 00:41:14;;;;;;;13.60;8.52;;;-1.90;99.90;;;;;;5057806;28;20071;-89
2021/11/28 00:43:41;;;;;;;14.98;8.80;;;-2.00;99.90;;;;;;5058107;28;20123;-90
2021/11/28 00:46:07;;;;;;;22.75;10.65;;;-2.00;99.90;;;;;;5058099;28;20044;-89
2021/11/28 00:48:38;;;;;;;18.23;10.05;;;-2.00;99.90;;;;;;5057914;28;20135;-89
2021/11/28 00:53:58;;;;;;;19.92;9.27;;;-2.00;99.90;;;;;;5067581;28;20056;-90
2021/11/28 00:56:24;;;;;;;17.35;9.23;;;-2.10;99.90;;;;;;5058283;28;20044;-90
2021/11/28 00:58:51;;;;;;;11.88;7.85;;;-2.10;99.90;;;;;;5058049;28;20049;-89
2021/11/28 01:01:18;;;;;;;12.25;7.70;;;-2.10;99.90;;;;;;5059660;28;20051;-88
2021/11/28 01:03:46;;;;;;;9.93;7.18;;;-2.10;99.90;;;;;;5058192;28;20048;-89
2021/11/28 01:06:13;;;;;;;12.60;6.93;;;-2.30;99.90;;;;;;5058267;28;20052;-89
2021/11/28 01:08:40;;;;;;;14.82;7.30;;;-2.30;99.90;;;;;;5057942;28;20056;-89
2021/11/28 01:11:07;;;;;;;14.20;9.45;;;-2.20;99.90;;;;;;5057750;28;20057;-89
2021/11/28 01:13:34;;;;;;;16.20;9.50;;;-2.30;99.90;;;;;;5057546;28;20411;-89
2021/11/28 01:16:00;;;;;;;12.35;8.43;;;-2.30;99.90;;;;;;5056546;28;20052;-90
2021/11/28 01:18:29;;;;;;;16.13;10.20;;;-2.30;99.90;;;;;;5057423;28;20063;-90
2021/11/28 01:20:55;;;;;;;17.00;10.50;;;-2.20;99.90;;;;;;5057966;28;20075;-90
2021/11/28 01:23:22;;;;;;;16.92;8.93;;;-2.20;99.90;;;;;;5057637;28;20507;-90
2021/11/28 01:25:49;;;;;;;15.77;9.43;;;-2.30;99.90;;;;;;5076080;28;20052;-90
2021/11/28 01:28:16;;;;;;;16.20;9.38;;;-2.40;99.90;;;;;;5060987;28;20485;-90
2021/11/28 01:30:43;;;;;;;14.82;8.88;;;-2.40;99.90;;;;;;5058239;28;20048;-90
2021/11/28 01:33:10;;;;;;;14.35;8.45;;;-2.60;99.90;;;;;;5057413;28;20079;-89
2021/11/28 01:35:36;;;;;;;11.07;8.02;;;-2.60;99.90;;;;;;5057704;28;20049;-90
2021/11/28 01:38:04;;;;;;;18.52;8.82;;;-2.60;99.90;;;;;;5057777;28;20110;-90
2021/11/28 01:40:32;;;;;;;10.73;7.65;;;-2.60;99.90;;;;;;5057631;28;20055;-90
2021/11/28 01:43:02;;;;;;;14.43;7.40;;;-2.60;99.90;;;;;;5057162;28;20048;-90
2021/11/28 01:45:31;;;;;;;10.38;6.25;;;-2.60;99.90;;;;;;5057464;28;20124;-89
2021/11/28 01:48:00;;;;;;;12.02;7.38;;;-2.70;99.90;;;;;;5057135;28;20055;-90
2021/11/28 01:50:30;;;;;;;15.55;8.20;;;-2.70;99.90;;;;;;5057182;28;20048;-90
2021/11/28 01:52:57;;;;;;;13.45;7.72;;;-2.70;99.90;;;;;;5056914;28;20048;-90
2021/11/28 01:55:25;;;;;;;13.93;7.50;;;-2.70;99.90;;;;;;5057213;28;20055;-90
2021/11/28 01:57:53;;;;;;;15.23;8.93;;;-2.70;99.90;;;;;;5057152;28;20511;-90
2021/11/28 02:00:25;;;;;;;20.50;9.43;;;-2.70;99.90;;;;;;5057221;28;20407;-90
2021/11/28 02:02:52;;;;;;;17.33;9.30;;;-2.70;99.90;;;;;;5056884;28;20080;-90
2021/11/28 02:05:21;;;;;;;13.63;8.18;;;-2.70;99.90;;;;;;5056937;28;20055;-90
2021/11/28 02:07:48;;;;;;;16.58;8.20;;;-2.80;99.90;;;;;;5056956;28;20051;-90
2021/11/28 02:10:15;;;;;;;15.35;7.78;;;-2.80;99.90;;;;;;5056709;28;20044;-90
2021/11/28 02:12:45;;;;;;;15.60;9.57;;;-2.80;99.90;;;;;;5056767;28;20075;-90
2021/11/28 02:15:13;;;;;;;16.25;9.88;;;-2.80;99.90;;;;;;5056904;28;20139;-90
2021/11/28 02:17:40;;;;;;;18.20;10.70;;;-2.80;99.90;;;;;;5056840;28;20086;-91
2021/11/28 02:20:09;;;;;;;14.73;9.10;;;-2.80;99.90;;;;;;5056819;28;20139;-91
2021/11/28 02:22:38;;;;;;;15.70;8.90;;;-2.80;99.90;;;;;;5056880;28;20131;-90
2021/11/28 02:25:07;;;;;;;12.68;8.57;;;-2.80;99.90;;;;;;5056614;28;20059;-90
2021/11/28 02:27:34;;;;;;;12.38;7.22;;;-2.90;99.90;;;;;;5056655;28;20389;-90
2021/11/28 02:30:01;;;;;;;13.80;8.18;;;-2.90;99.90;;;;;;5071056;28;20120;-91
2021/11/28 02:32:28;;;;;;;14.57;8.38;;;-2.90;99.90;;;;;;5061892;28;20059;-90
2021/11/28 02:34:55;;;;;;;15.30;8.48;;;-2.90;99.90;;;;;;5056413;28;20056;-91
2021/11/28 02:37:22;;;;;;;15.02;8.30;;;-2.80;99.90;;;;;;5056160;28;20048;-90
2021/11/28 02:39:49;;;;;;;11.15;7.63;;;-2.90;99.90;;;;;;5056566;28;20060;-91
2021/11/28 02:42:18;;;;;;;14.32;8.07;;;-2.90;99.90;;;;;;5058119;28;20048;-90
2021/11/28 02:44:45;;;;;;;16.65;8.93;;;-3.00;99.90;;;;;;5060688;28;20052;-90
2021/11/28 02:47:13;;;;;;;18.08;8.98;;;-3.10;99.90;;;;;;5055895;28;20135;-91
2021/11/28 02:49:40;;;;;;;15.77;8.75;;;-3.10;99.90;;;;;;5055550;28;20056;-91
2021/11/28 02:52:10;;;;;;;16.30;10.10;;;-3.00;99.90;;;;;;5056176;28;20131;-91
2021/11/28 02:54:37;;;;;;;13.45;9.05;;;-3.10;99.90;;;;;;5056003;28;20496;-90
2021/11/28 02:57:08;;;;;;;15.98;9.18;;;-3.20;99.90;;;;;;5056231;28;20858;-91
2021/11/28 02:59:35;;;;;;;12.18;9.10;;;-3.20;99.90;;;;;;5056337;28;20058;-91
2021/11/28 03:02:03;;;;;;;16.55;8.38;;;-3.30;99.90;;;;;;5055812;28;20078;-91
2021/11/28 03:04:30;;;;;;;28.10;22.80;;;-3.40;99.90;;;;;;5056141;28;20056;-91
2021/11/28 03:06:57;;;;;;;14.55;9.15;;;-3.40;99.90;;;;;;5056307;28;20559;-91
2021/11/28 03:09:24;;;;;;;23.23;10.95;;;-3.50;99.90;;;;;;5055943;28;20060;-91
2021/11/28 03:11:51;;;;;;;16.20;9.77;;;-3.40;99.90;;;;;;5056290;28;20131;-91
2021/11/28 03:14:17;;;;;;;19.15;9.73;;;-3.50;99.90;;;;;;5056495;28;20552;-91
2021/11/28 03:16:44;;;;;;;13.55;8.75;;;-3.70;99.90;;;;;;5056195;28;20062;-91
2021/11/28 03:19:11;;;;;;;13.00;9.23;;;-3.60;99.90;;;;;;5055915;28;20060;-92
2021/11/28 03:21:38;;;;;;;17.33;9.20;;;-3.60;99.90;;;;;;5056212;28;20121;-91
2021/11/28 03:24:06;;;;;;;14.85;9.50;;;-3.60;99.90;;;;;;5056888;28;20147;-91
2021/11/28 03:26:35;;;;;;;14.00;8.20;;;-3.50;99.90;;;;;;5056084;28;20074;-91
2021/11/28 03:29:08;;;;;;;11.55;8.00;;;-3.50;99.90;;;;;;5055581;28;20052;-92
2021/11/28 03:31:38;;;;;;;11.18;7.97;;;-3.50;99.90;;;;;;5056120;28;20058;-91
2021/11/28 03:34:08;;;;;;;13.35;8.90;;;-3.40;99.90;;;;;;5056007;28;20072;-91
2021/11/28 03:36:38;;;;;;;15.13;9.73;;;-3.40;99.90;;;;;;5055863;28;20131;-92
2021/11/28 03:39:07;;;;;;;15.70;10.75;;;-3.30;99.90;;;;;;5058821;28;20139;-92
2021/11/28 03:41:35;;;;;;;15.02;9.73;;;-3.40;99.90;;;;;;5059895;28;20059;-91
2021/11/28 03:44:03;;;;;;;13.88;9.15;;;-3.30;99.90;;;;;;5059838;28;20121;-92
2021/11/28 03:46:30;;;;;;;18.63;10.07;;;-3.40;99.90;;;;;;5060151;28;20139;-92
2021/11/28 03:48:58;;;;;;;20.00;9.65;;;-3.40;99.90;;;;;;5059548;28;20048;-92
2021/11/28 03:51:26;;;;;;;12.43;8.50;;;-3.50;99.90;;;;;;5059889;28;20128;-92
2021/11/28 03:53:52;;;;;;;19.23;9.82;;;-3.50;99.90;;;;;;5060023;28;20082;-92
2021/11/28 03:56:19;;;;;;;15.20;9.15;;;-3.60;99.90;;;;;;5059983;28;20048;-92
2021/11/28 03:58:50;;;;;;;15.68;8.63;;;-3.60;99.90;;;;;;5064770;28;20053;-92
2021/11/28 04:01:18;;;;;;;14.50;8.90;;;-3.50;99.90;;;;;;5061360;28;20060;-92
2021/11/28 04:03:45;;;;;;;12.70;8.80;;;-3.60;99.90;;;;;;5059700;28;20068;-92
2021/11/28 04:06:13;;;;;;;13.18;8.63;;;-3.60;99.90;;;;;;5059504;28;20055;-92
2021/11/28 04:08:40;;;;;;;14.55;8.98;;;-3.60;99.90;;;;;;5059501;28;20048;-92
2021/11/28 04:11:07;;;;;;;12.05;8.48;;;-3.70;99.90;;;;;;5076149;28;20076;-92
2021/11/28 04:13:35;;;;;;;12.80;9.05;;;-3.70;99.90;;;;;;5059539;28;20604;-92
2021/11/28 04:16:01;;;;;;;19.08;9.10;;;-3.60;99.90;;;;;;5059375;28;20548;-92
2021/11/28 04:18:29;;;;;;;17.40;9.57;;;-3.60;99.90;;;;;;5059288;28;20102;-92
2021/11/28 04:20:56;;;;;;;19.30;9.35;;;-3.50;99.90;;;;;;5058953;28;20448;-92
2021/11/28 04:23:23;;;;;;;14.85;9.73;;;-3.50;99.90;;;;;;5059297;28;20094;-92
2021/11/28 04:25:50;;;;;;;15.65;9.55;;;-3.50;99.90;;;;;;5059134;28;20091;-92
2021/11/28 04:28:17;;;;;;;14.23;8.45;;;-3.60;99.90;;;;;;5059217;28;20087;-93
2021/11/28 04:30:44;;;;;;;11.63;7.97;;;-3.60;99.90;;;;;;5059191;28;20556;-92
2021/11/28 04:33:14;;;;;;;13.27;8.93;;;-3.70;99.90;;;;;;5059088;28;20044;-92
2021/11/28 04:35:42;;;;;;;16.00;8.88;;;-3.70;99.90;;;;;;5059189;28;20079;-92
2021/11/28 04:38:09;;;;;;;10.48;7.85;;;-3.80;99.90;;;;;;5058469;28;20301;-92
2021/11/28 04:40:36;;;;;;;13.95;8.02;;;-3.90;99.90;;;;;;5058295;28;20087;-93
2021/11/28 04:43:03;;;;;;;14.32;8.93;;;-4.00;99.90;;;;;;5058867;28;20060;-93
2021/11/28 04:45:30;;;;;;;11.30;8.40;;;-4.00;99.90;;;;;;5059225;28;20059;-92
2021/11/28 04:47:57;;;;;;;15.23;8.60;;;-3.90;99.90;;;;;;5059065;28;20139;-92
2021/11/28 04:50:24;;;;;;;15.52;10.80;;;-3.90;99.90;;;;;;5058549;28;20135;-92
2021/11/28 04:52:51;;;;;;;25.17;16.98;;;-3.90;99.90;;;;;;5058835;28;20120;-92
2021/11/28 04:55:18;;;;;;;25.98;15.00;;;-3.80;99.90;;;;;;5080357;28;20056;-92
2021/11/28 04:57:45;;;;;;;59.35;38.33;;;-3.80;99.90;;;;;;5068208;28;20079;-93
2021/11/28 05:00:21;;;;;;;38.08;22.95;;;-3.70;99.90;;;;;;5058772;28;20140;-93
2021/11/28 05:02:48;;;;;;;43.10;29.80;;;-3.70;99.90;;;;;;5058683;28;20059;-92
2021/11/28 05:05:16;;;;;;;40.88;22.45;;;-3.70;99.90;;;;;;5058631;28;20052;-92
2021/11/28 05:07:43;;;;;;;28.02;17.95;;;-3.80;99.90;;;;;;5058728;28;20135;-92
2021/11/28 05:10:10;;;;;;;22.25;11.70;;;-3.80;99.90;;;;;;5058429;28;20140;-92
2021/11/28 05:12:38;;;;;;;19.42;11.95;;;-3.80;99.90;;;;;;5059883;28;20136;-92
2021/11/28 05:15:06;;;;;;;17.42;10.15;;;-3.90;99.90;;;;;;5063474;28;20076;-93
2021/11/28 05:17:33;;;;;;;20.73;12.02;;;-3.90;99.90;;;;;;5058478;28;20053;-92
2021/11/28 05:20:00;;;;;;;27.45;14.20;;;-4.00;99.90;;;;;;5058219;28;20139;-92
2021/11/28 05:22:28;;;;;;;26.77;15.38;;;-4.00;99.90;;;;;;5058357;28;20110;-92
2021/11/28 05:24:55;;;;;;;24.95;13.38;;;-3.90;99.90;;;;;;5058097;28;20082;-92
2021/11/28 05:27:22;;;;;;;19.00;10.75;;;-3.90;99.90;;;;;;5057654;28;20144;-92
2021/11/28 05:29:49;;;;;;;16.77;10.52;;;-3.80;99.90;;;;;;5057618;28;20050;-92
2021/11/28 05:32:16;;;;;;;22.58;12.77;;;-3.80;99.90;;;;;;5057968;28;20140;-93
2021/11/28 05:34:43;;;;;;;15.70;10.88;;;-3.60;99.90;;;;;;5057790;28;20048;-92
2021/11/28 05:37:11;;;;;;;18.88;10.23;;;-3.60;99.90;;;;;;5057732;28;20041;-92
2021/11/28 05:39:38;;;;;;;18.80;12.77;;;-3.50;99.90;;;;;;5057739;28;20056;-92
2021/11/28 05:42:05;;;;;;;16.38;9.55;;;-3.40;99.90;;;;;;5057669;28;20131;-93
2021/11/28 05:44:32;;;;;;;13.93;9.80;;;-3.30;99.90;;;;;;5057596;28;20075;-92
2021/11/28 05:46:59;;;;;;;13.93;9.25;;;-3.30;99.90;;;;;;5057386;28;20041;-92
2021/11/28 05:49:26;;;;;;;13.55;9.25;;;-3.20;99.90;;;;;;5057482;28;20052;-92
2021/11/28 05:51:53;;;;;;;17.95;10.10;;;-3.20;99.90;;;;;;5057395;28;20139;-92
2021/11/28 05:54:20;;;;;;;22.27;10.30;;;-3.20;99.90;;;;;;5057538;28;20108;-92
2021/11/28 05:56:47;;;;;;;24.13;12.75;;;-3.10;99.90;;;;;;5057682;28;20136;-92
2021/11/28 05:59:14;;;;;;;18.95;11.13;;;-3.00;99.90;;;;;;5057284;28;20132;-92
2021/11/28 06:01:41;;;;;;;16.13;10.55;;;-3.00;99.90;;;;;;5056608;28;20068;-92
2021/11/28 06:04:08;;;;;;;13.15;9.93;;;-2.90;99.90;;;;;;5057386;28;20064;-92
2021/11/28 06:06:35;;;;;;;15.63;9.57;;;-2.80;99.90;;;;;;5057178;28;20056;-92
2021/11/28 06:09:02;;;;;;;16.83;9.02;;;-2.70;99.90;;;;;;5056805;28;20044;-92
2021/11/28 06:11:29;;;;;;;18.23;9.00;;;-2.70;99.90;;;;;;5057021;28;20604;-92
2021/11/28 06:13:55;;;;;;;26.75;10.80;;;-2.80;99.90;;;;;;5056946;28;20055;-92
2021/11/28 06:16:22;;;;;;;19.10;10.18;;;-2.90;99.90;;;;;;5056973;28;20048;-92
2021/11/28 06:18:49;;;;;;;32.63;12.00;;;-2.90;99.90;;;;;;5056684;28;20052;-92
2021/11/28 06:21:16;;;;;;;18.08;9.82;;;-3.00;99.90;;;;;;5057413;28;20139;-92
2021/11/28 06:23:43;;;;;;;14.82;9.40;;;-3.00;99.90;;;;;;5056914;28;20459;-92
2021/11/28 06:26:10;;;;;;;24.25;10.35;;;-2.80;99.90;;;;;;5056873;28;20068;-92
2021/11/28 06:28:36;;;;;;;14.05;9.57;;;-2.80;99.90;;;;;;5057140;28;20560;-92
2021/11/28 06:31:03;;;;;;;13.98;9.57;;;-2.70;99.90;;;;;;5059974;28;20135;-91
2021/11/28 06:33:30;;;;;;;16.80;9.40;;;-2.70;99.90;;;;;;5056942;28;20488;-91
2021/11/28 06:35:57;;;;;;;14.40;7.82;;;-2.70;99.90;;;;;;5056921;28;20386;-92
2021/11/28 06:38:24;;;;;;;13.65;8.75;;;-2.70;99.90;;;;;;5056467;28;20131;-92
2021/11/28 06:40:51;;;;;;;9.45;6.30;;;-2.80;99.90;;;;;;5056583;28;20056;-92
2021/11/28 06:43:18;;;;;;;8.38;6.45;;;-2.80;99.90;;;;;;5056534;28;20135;-92
2021/11/28 06:45:45;;;;;;;11.25;7.07;;;-2.90;99.90;;;;;;5057016;28;20051;-92
2021/11/28 06:48:12;;;;;;;18.10;9.27;;;-3.00;99.90;;;;;;5056787;28;20080;-92
2021/11/28 06:50:38;;;;;;;17.52;10.45;;;-3.00;99.90;;;;;;5056446;28;20434;-92
2021/11/28 06:53:06;;;;;;;35.65;17.15;;;-3.00;99.90;;;;;;5056810;28;20060;-92
2021/11/28 06:55:33;;;;;;;49.05;20.88;;;-3.10;99.90;;;;;;5056606;28;20556;-92
2021/11/28 06:58:00;;;;;;;71.18;34.17;;;-3.10;99.90;;;;;;5055211;28;20075;-92
2021/11/28 07:00:27;;;;;;;41.10;23.00;;;-3.10;99.90;;;;;;5055604;28;20075;-92
2021/11/28 07:02:53;;;;;;;26.17;14.85;;;-3.10;99.90;;;;;;5055486;28;20044;-92
2021/11/28 07:05:21;;;;;;;40.13;23.73;;;-3.00;99.90;;;;;;5056926;28;20054;-92
2021/11/28 07:07:48;;;;;;;37.10;21.13;;;-3.00;99.90;;;;;;5058150;28;20052;-91
2021/11/28 07:10:14;;;;;;;40.63;19.20;;;-3.00;99.90;;;;;;5055331;28;20068;-92
2021/11/28 07:12:41;;;;;;;43.30;21.25;;;-2.90;99.90;;;;;;5055633;28;20131;-91
2021/11/28 07:15:08;;;;;;;27.15;14.50;;;-2.90;99.90;;;;;;5055159;28;20083;-92
2021/11/28 07:17:35;;;;;;;19.73;11.40;;;-2.90;99.90;;;;;;5055367;28;20100;-92
2021/11/28 07:20:04;;;;;;;21.25;10.98;;;-2.90;99.90;;;;;;5055264;28;20163;-91
2021/11/28 07:22:31;;;;;;;29.42;13.98;;;-2.90;99.90;;;;;;5056750;28;20048;-91
2021/11/28 07:24:57;;;;;;;30.63;15.90;;;-3.00;99.90;;;;;;5077198;28;20049;-91
2021/11/28 07:27:24;;;;;;;28.60;15.57;;;-3.00;99.90;;;;;;5063758;28;20072;-91
2021/11/28 07:29:51;;;;;;;27.10;17.17;;;-3.00;99.90;;;;;;5056949;28;20139;-92
2021/11/28 07:32:18;;;;;;;27.75;16.08;;;-2.90;99.90;;;;;;5057074;28;20044;-91
2021/11/28 07:34:45;;;;;;;30.30;16.27;;;-3.00;99.90;;;;;;5057106;28;20067;-91
2021/11/28 07:37:12;;;;;;;27.55;15.20;;;-3.00;99.90;;;;;;5057189;28;20106;-91
2021/11/28 07:39:38;;;;;;;25.73;15.25;;;-3.10;99.90;;;;;;5056947;28;20052;-92
2021/11/28 07:42:07;;;;;;;30.30;14.68;;;-3.00;99.90;;;;;;5057094;28;20135;-92
2021/11/28 07:44:34;;;;;;;27.63;15.43;;;-2.90;99.90;;;;;;5057632;28;20144;-92
2021/11/28 07:47:02;;;;;;;23.40;14.48;;;-3.00;99.90;;;;;;5061379;28;20400;-91
2021/11/28 07:49:28;;;;;;;27.45;14.75;;;-2.90;99.90;;;;;;5058116;28;20475;-91
2021/11/28 07:51:55;;;;;;;23.08;13.27;;;-2.90;99.90;;;;;;5056905;28;20087;-92
2021/11/28 07:54:22;;;;;;;20.50;12.57;;;-2.80;99.90;;;;;;5056869;28;20069;-91
2021/11/28 07:56:49;;;;;;;24.05;13.68;;;-2.70;99.90;;;;;;5056351;28;20135;-91
2021/11/28 07:59:16;;;;;;;27.92;15.68;;;-2.60;99.90;;;;;;5056558;28;20148;-91
2021/11/28 08:01:42;;;;;;;35.70;20.20;;;-2.60;99.90;;;;;;5055525;28;20131;-91
2021/11/28 08:04:09;;;;;;;45.90;21.80;;;-2.50;99.90;;;;;;5055079;28;20467;-91
2021/11/28 08:06:36;;;;;;;40.13;21.02;;;-2.30;99.90;;;;;;5054998;28;20162;-91
2021/11/28 08:09:03;;;;;;;35.83;20.90;;;-2.30;99.90;;;;;;5055173;28;20140;-91
2021/11/28 08:11:30;;;;;;;36.60;18.75;;;-2.30;99.90;;;;;;5057240;28;20412;-91
2021/11/28 08:13:57;;;;;;;23.27;13.35;;;-2.10;99.90;;;;;;5056874;28;20507;-91
2021/11/28 08:16:24;;;;;;;27.02;14.70;;;-2.10;99.90;;;;;;5057074;28;20123;-91
2021/11/28 08:18:51;;;;;;;80.80;31.98;;;-2.00;99.90;;;;;;5055922;28;20053;-91
2021/11/28 08:21:17;;;;;;;87.22;37.75;;;-2.00;99.90;;;;;;5056418;28;20071;-91
2021/11/28 08:23:44;;;;;;;45.40;24.55;;;-1.90;99.90;;;;;;5056551;28;20136;-91
2021/11/28 08:26:12;;;;;;;80.30;33.47;;;-1.80;99.90;;;;;;5059688;28;20127;-91
2021/11/28 08:28:39;;;;;;;50.08;27.50;;;-1.60;99.90;;;;;;5059792;28;20124;-91
2021/11/28 08:31:06;;;;;;;69.20;33.15;;;-1.60;99.90;;;;;;5059031;28;20139;-90
2021/11/28 08:33:33;;;;;;;76.45;38.75;;;-1.40;99.90;;;;;;5060157;28;20076;-90
2021/11/28 08:36:00;;;;;;;63.45;32.47;;;-1.20;99.90;;;;;;5059445;28;20063;-90
2021/11/28 08:38:28;;;;;;;59.08;32.97;;;-1.10;99.90;;;;;;5058363;28;20485;-90
2021/11/28 08:40:55;;;;;;;53.70;28.88;;;-0.90;99.90;;;;;;5058544;28;20416;-90
2021/11/28 08:43:22;;;;;;;57.88;34.63;;;-0.80;99.90;;;;;;5058707;28;20476;-90
2021/11/28 08:45:49;;;;;;;45.20;30.50;;;-0.60;99.90;;;;;;5059399;28;20166;-90
2021/11/28 08:48:16;;;;;;;55.08;30.95;;;-0.50;99.90;;;;;;5059406;28;20136;-90
2021/11/28 08:50:43;;;;;;;44.65;28.55;;;-0.40;99.90;;;;;;5058028;28;20049;-90
2021/11/28 08:53:10;;;;;;;39.28;24.13;;;-0.20;99.90;;;;;;5057907;28;20139;-90
2021/11/28 08:55:37;;;;;;;47.13;26.60;;;-0.10;99.90;;;;;;5060392;28;20044;-90
2021/11/28 08:58:04;;;;;;;64.97;35.55;;;0.00;99.90;;;;;;5059566;28;20127;-90
2021/11/28 09:00:31;;;;;;;28.60;19.58;;;0.10;99.90;;;;;;5059594;28;20112;-90
2021/11/28 09:02:58;;;;;;;22.80;14.20;;;0.10;99.90;;;;;;5061825;28;20455;-90
2021/11/28 09:05:26;;;;;;;22.65;13.57;;;0.10;99.90;;;;;;5060426;28;20044;-90
2021/11/28 09:07:52;;;;;;;23.10;14.70;;;0.20;99.90;;;;;;5058249;28;20108;-90
2021/11/28 09:10:20;;;;;;;20.50;14.57;;;0.20;99.90;;;;;;5058380;28;20159;-90
2021/11/28 09:12:47;;;;;;;26.73;15.40;;;0.30;99.90;;;;;;5058624;28;20135;-90
2021/11/28 09:15:16;;;;;;;25.55;15.75;;;0.40;99.90;;;;;;5058613;28;20076;-90
2021/11/28 09:17:51;;;;;;;18.15;15.35;;;0.40;99.90;;;;;;5058276;28;20059;-90
2021/11/28 09:20:22;;;;;;;19.27;12.80;;;0.50;99.90;;;;;;5058383;28;20048;-89
2021/11/28 09:25:27;;;;;;;13.63;9.32;;;0.50;99.90;;;;;;5075264;28;20056;-90
2021/11/28 09:27:57;;;;;;;12.43;8.82;;;0.50;99.90;;;;;;5057316;28;20139;-90
2021/11/28 09:30:24;;;;;;;19.05;9.02;;;0.50;99.90;;;;;;5057383;28;20127;-88
2021/11/28 09:32:53;;;;;;;17.98;11.48;;;0.50;99.90;;;;;;5057321;28;20151;-90
2021/11/28 09:35:23;;;;;;;16.33;10.50;;;0.60;99.90;;;;;;5056350;28;20044;-90
2021/11/28 09:37:51;;;;;;;31.33;20.08;;;0.70;99.90;;;;;;5057613;28;20061;-90
2021/11/28 09:40:18;;;;;;;22.60;15.43;;;0.80;99.90;;;;;;5052884;28;20058;-90
2021/11/28 09:42:54;;;;;;;12.52;10.15;;;0.90;99.90;;;;;;5045061;28;20155;-89
2021/11/28 09:45:23;;;;;;;24.75;13.13;;;1.00;99.90;;;;;;5036625;28;20123;-89
2021/11/28 09:47:50;;;;;;;21.35;13.10;;;1.00;99.90;;;;;;5037364;28;20057;-90
2021/11/28 09:50:18;;;;;;;22.98;16.17;;;1.10;99.90;;;;;;5037496;28;20137;-89
2021/11/28 09:52:48;;;;;;;25.40;17.35;;;1.20;99.90;;;;;;5038846;28;20052;-90
2021/11/28 09:55:16;;;;;;;27.98;19.25;;;1.20;99.90;;;;;;5041190;28;20045;-89
2021/11/28 09:57:44;;;;;;;38.53;22.40;;;1.40;99.90;;;;;;5037133;28;20071;-88
2021/11/28 10:00:13;;;;;;;45.92;29.98;;;1.40;99.90;;;;;;5036839;28;20057;-89
2021/11/28 10:02:42;;;;;;;49.53;30.02;;;1.60;99.90;;;;;;5036321;28;20045;-89
2021/11/28 10:05:12;;;;;;;45.78;27.75;;;1.80;99.90;;;;;;5036423;28;20053;-88
2021/11/28 10:07:45;;;;;;;33.78;22.75;;;1.80;99.90;;;;;;5036754;28;20075;-89
2021/11/28 10:10:13;;;;;;;38.85;23.67;;;2.00;99.90;;;;;;5035984;28;20157;-88
2021/11/28 10:12:43;;;;;;;37.00;19.30;;;2.20;99.90;;;;;;5036313;28;20053;-89
2021/11/28 10:15:13;;;;;;;28.15;14.32;;;2.10;99.90;;;;;;5036894;28;20056;-88
2021/11/28 10:17:40;;;;;;;45.63;32.60;;;2.00;99.90;;;;;;5037172;28;20049;-88
2021/11/28 10:20:10;;;;;;;86.25;55.13;;;2.00;99.90;;;;;;5050621;28;20056;-89
2021/11/28 10:22:38;;;;;;;53.35;36.65;;;2.30;99.90;;;;;;5038149;28;20087;-88
2021/11/28 10:25:20;;;;;;;48.88;34.40;;;2.60;99.90;;;;;;5036382;28;20085;-88
2021/11/28 10:27:50;;;;;;;35.88;26.98;;;2.50;99.90;;;;;;5035892;28;20048;-88
2021/11/28 10:30:18;;;;;;;35.53;23.58;;;2.60;99.90;;;;;;5035938;28;20044;-87
2021/11/28 10:32:49;;;;;;;40.20;27.75;;;2.70;99.90;;;;;;5035414;28;20140;-87
2021/11/28 10:35:18;;;;;;;41.03;28.63;;;2.80;99.90;;;;;;5035362;28;20571;-88
2021/11/28 10:37:51;;;;;;;30.63;20.08;;;3.10;99.90;;;;;;5035794;28;20045;-88
2021/11/28 10:40:29;;;;;;;22.33;16.65;;;3.10;99.90;;;;;;5035695;28;20100;-88
2021/11/28 10:43:08;;;;;;;28.20;17.15;;;3.20;99.90;;;;;;5035473;28;20412;-88
2021/11/28 10:45:48;;;;;;;22.05;15.38;;;3.30;99.90;;;;;;5035553;28;20059;-87
2021/11/28 10:48:25;;;;;;;18.90;12.07;;;2.90;99.90;;;;;;5035958;28;20049;-87
2021/11/28 10:50:53;;;;;;;22.52;15.23;;;2.60;99.90;;;;;;5035489;28;20057;-86
2021/11/28 10:53:22;;;;;;;19.50;11.85;;;2.70;99.90;;;;;;5053438;28;20474;-86
2021/11/28 10:55:55;;;;;;;23.75;14.82;;;2.50;99.90;;;;;;5035206;28;20131;-87
2021/11/28 10:58:25;;;;;;;;;;;2.30;99.90;;;;;;5035861;28;20064;-87
2021/11/28 11:00:52;;;;;;;20.08;12.07;;;2.50;99.90;;;;;;5035544;28;19925;-87
2021/11/28 11:03:19;;;;;;;27.80;14.20;;;2.40;99.90;;;;;;5035896;28;20468;-86
2021/11/28 11:05:49;;;;;;;20.55;12.77;;;2.30;99.90;;;;;;5053519;28;20137;-87
2021/11/28 11:08:17;;;;;;;20.88;11.63;;;2.30;99.90;;;;;;5036009;28;20088;-86
2021/11/28 11:10:46;;;;;;;21.15;11.48;;;2.50;99.90;;;;;;5035583;28;20490;-87
2021/11/28 11:13:21;;;;;;;17.40;9.50;;;2.70;99.90;;;;;;5035747;28;20123;-86
2021/11/28 11:15:49;;;;;;;15.02;9.07;;;2.80;99.90;;;;;;5035600;28;20106;-86
2021/11/28 11:18:21;;;;;;;14.48;8.60;;;3.10;99.90;;;;;;5053185;28;20060;-86
2021/11/28 11:20:51;;;;;;;22.67;15.52;;;3.00;99.90;;;;;;5035719;28;20440;-86
2021/11/28 11:23:37;;;;;;;16.70;11.50;;;3.00;99.90;;;;;;5036121;28;20071;-86
2021/11/28 11:26:14;;;;;;;12.40;7.78;;;3.20;99.90;;;;;;5031633;28;20154;-86
2021/11/28 11:29:07;;;;;;;13.38;9.10;;;3.40;99.90;;;;;;5036698;28;20135;-87
2021/11/28 11:31:36;;;;;;;13.25;9.13;;;3.50;99.90;;;;;;5045972;28;20059;-86
2021/11/28 11:34:23;;;;;;;13.65;9.77;;;3.70;99.90;;;;;;5044592;28;20071;-86
2021/11/28 11:36:55;;;;;;;16.95;10.90;;;3.80;99.90;;;;;;5069716;28;20136;-87
2021/11/28 11:39:24;;;;;;;18.98;10.55;;;3.80;99.90;;;;;;5035976;28;20132;-86
2021/11/28 11:41:51;;;;;;;17.88;9.65;;;4.00;99.90;;;;;;5035685;28;20044;-87
2021/11/28 11:44:18;;;;;;;13.98;9.23;;;4.10;99.90;;;;;;5035560;28;20063;-86
2021/11/28 11:46:46;;;;;;;16.17;9.18;;;4.20;99.90;;;;;;5035612;28;20049;-86
2021/11/28 11:49:16;;;;;;;12.05;8.73;;;4.20;99.90;;;;;;5035625;28;20574;-87
2021/11/28 11:51:46;;;;;;;21.17;9.70;;;4.10;99.90;;;;;;5039307;28;20048;-86
2021/11/28 11:54:25;;;;;;;8.68;6.95;;;4.10;99.90;;;;;;5052895;28;20049;-86
2021/11/28 11:57:02;;;;;;;10.85;8.80;;;4.00;99.90;;;;;;5055615;28;20055;-86
2021/11/28 11:59:53;;;;;;;10.63;7.88;;;4.10;99.90;;;;;;5057367;28;20534;-87
2021/11/28 12:02:34;;;;;;;12.45;8.85;;;4.10;99.90;;;;;;5059811;28;20453;-86
2021/11/28 12:05:21;;;;;;;11.38;7.88;;;4.20;99.90;;;;;;5059088;28;20061;-86
2021/11/28 12:07:52;;;;;;;15.38;9.23;;;4.20;99.90;;;;;;5059380;28;20087;-86
2021/11/28 12:10:32;;;;;;;15.77;10.60;;;4.20;99.90;;;;;;5059712;28;20058;-86
2021/11/28 12:13:01;;;;;;;19.70;11.95;;;4.30;99.90;;;;;;5058816;28;20407;-86
2021/11/28 12:15:34;;;;;;;24.30;11.68;;;4.30;99.90;;;;;;5059155;28;20139;-86
2021/11/28 12:18:02;;;;;;;17.88;10.85;;;4.40;99.90;;;;;;5058495;28;20056;-86
2021/11/28 12:20:51;;;;;;;16.70;12.02;;;4.30;99.90;;;;;;5058884;28;20048;-86
2021/11/28 12:23:43;;;;;;;20.13;12.20;;;4.40;99.90;;;;;;5075971;28;20136;-86
2021/11/28 12:26:25;;;;;;;14.75;11.60;;;4.50;99.90;;;;;;5058814;28;20049;-86
2021/11/28 12:28:56;;;;;;;14.75;11.10;;;4.40;99.90;;;;;;5076170;28;20044;-85
2021/11/28 12:31:31;;;;;;;22.48;16.85;;;4.40;99.90;;;;;;5075562;28;20503;-86
2021/11/28 12:33:59;;;;;;;18.08;11.88;;;4.40;99.90;;;;;;5076208;28;20056;-86
2021/11/28 12:36:42;;;;;;;13.57;11.27;;;4.60;99.90;;;;;;5058668;28;20041;-86
2021/11/28 12:39:13;;;;;;;18.15;13.27;;;4.60;99.90;;;;;;5058203;28;20044;-86
2021/11/28 12:44:32;;;;;;;15.50;11.00;;;4.30;99.90;;;;;;5075662;28;20140;-85
2021/11/28 12:47:01;;;;;;;12.85;10.57;;;4.30;99.90;;;;;;5057838;28;20084;-85
2021/11/28 12:49:34;;;;;;;15.82;9.52;;;4.40;99.90;;;;;;5058124;28;20044;-85
2021/11/28 12:52:24;;;;;;;16.35;10.50;;;4.40;99.90;;;;;;5075898;28;20059;-86
2021/11/28 12:55:03;;;;;;;15.20;10.93;;;4.30;99.90;;;;;;5057839;28;20045;-85